sensor_id;sensor_type;location;lat;lon;timestamp;P1;durP1;ratioP1;P2;durP2;ratioP2
66521;SDS011;53349;53.538;8.584;2023-04-15T00:01:38;9.40;;;4.82;;
66521;SDS011;53349;53.538;8.584;2023-04-15T00:04:03;13.57;;;6.20;;
66521;SDS011;53349;53.538;8.584;2023-04-15T00:06:29;12.07;;;6.10;;
66521;SDS011;53349;53.538;8.584;2023-04-15T00:08:54;11.73;;;5.87;;
66521;SDS011;53349;53.538;8.584;2023-04-15T00:11:19;12.53;;;6.10;;
66521;SDS011;53349;53.538;8.584;2023-04-15T00:13:45;12.37;;;6.20;;
66521;SDS011;53349;53.538;8.584;2023-04-15T00:16:10;13.70;;;6.13;;
66521;SDS011;53349;53.538;8.584;2023-04-15T00:18:36;12.35;;;6.43;;
66521;SDS011;53349;53.538;8.584;2023-04-15T00:21:01;14.33;;;6.10;;
66521;SDS011;53349;53.538;8.584;2023-04-15T00:23:27;12.15;;;6.00;;
66521;SDS011;53349;53.538;8.584;2023-04-15T00:25:52;11.50;;;5.65;;
66521;SDS011;53349;53.538;8.584;2023-04-15T00:28:18;11.33;;;5.47;;
66521;SDS011;53349;53.538;8.584;2023-04-15T00:30:44;10.60;;;5.50;;
66521;SDS011;53349;53.538;8.584;2023-04-15T00:33:09;11.90;;;5.40;;
66521;SDS011;53349;53.538;8.584;2023-04-15T00:35:35;10.40;;;4.87;;
66521;SDS011;53349;53.538;8.584;2023-04-15T00:38:00;10.20;;;5.00;;
66521;SDS011;53349;53.538;8.584;2023-04-15T00:40:26;10.40;;;4.77;;
66521;SDS011;53349;53.538;8.584;2023-04-15T00:42:51;10.33;;;4.40;;
66521;SDS011;53349;53.538;8.584;2023-04-15T00:45:18;8.85;;;4.50;;
66521;SDS011;53349;53.538;8.584;2023-04-15T00:47:43;11.23;;;4.73;;
66521;SDS011;53349;53.538;8.584;2023-04-15T00:50:11;10.52;;;4.45;;
66521;SDS011;53349;53.538;8.584;2023-04-15T00:52:37;10.70;;;4.68;;
66521;SDS011;53349;53.538;8.584;2023-04-15T00:55:03;11.15;;;4.63;;
66521;SDS011;53349;53.538;8.584;2023-04-15T00:57:29;10.02;;;4.63;;
66521;SDS011;53349;53.538;8.584;2023-04-15T00:59:55;10.23;;;4.78;;
66521;SDS011;53349;53.538;8.584;2023-04-15T01:02:21;8.85;;;4.60;;
66521;SDS011;53349;53.538;8.584;2023-04-15T01:04:47;10.20;;;4.40;;
66521;SDS011;53349;53.538;8.584;2023-04-15T01:07:13;8.65;;;4.38;;
66521;SDS011;53349;53.538;8.584;2023-04-15T01:09:38;10.57;;;5.30;;
66521;SDS011;53349;53.538;8.584;2023-04-15T01:12:04;10.32;;;4.60;;
66521;SDS011;53349;53.538;8.584;2023-04-15T01:14:30;9.43;;;4.67;;
66521;SDS011;53349;53.538;8.584;2023-04-15T01:16:57;9.82;;;4.70;;
66521;SDS011;53349;53.538;8.584;2023-04-15T01:19:28;10.93;;;5.07;;
66521;SDS011;53349;53.538;8.584;2023-04-15T01:21:55;10.82;;;4.70;;
66521;SDS011;53349;53.538;8.584;2023-04-15T01:27:44;12.90;;;5.22;;
66521;SDS011;53349;53.538;8.584;2023-04-15T01:39:28;10.27;;;4.93;;
66521;SDS011;53349;53.538;8.584;2023-04-15T01:42:00;10.02;;;4.90;;
66521;SDS011;53349;53.538;8.584;2023-04-15T01:44:33;10.25;;;5.18;;
66521;SDS011;53349;53.538;8.584;2023-04-15T01:47:03;10.18;;;4.72;;
66521;SDS011;53349;53.538;8.584;2023-04-15T01:49:43;10.82;;;4.65;;
66521;SDS011;53349;53.538;8.584;2023-04-15T01:52:14;10.25;;;4.72;;
66521;SDS011;53349;53.538;8.584;2023-04-15T01:54:40;9.70;;;4.65;;
66521;SDS011;53349;53.538;8.584;2023-04-15T01:57:06;9.30;;;4.43;;
66521;SDS011;53349;53.538;8.584;2023-04-15T01:59:31;10.17;;;4.60;;
66521;SDS011;53349;53.538;8.584;2023-04-15T02:01:57;11.05;;;4.95;;
66521;SDS011;53349;53.538;8.584;2023-04-15T02:04:22;8.07;;;4.30;;
66521;SDS011;53349;53.538;8.584;2023-04-15T02:06:48;8.77;;;4.60;;
66521;SDS011;53349;53.538;8.584;2023-04-15T02:09:15;10.65;;;4.95;;
66521;SDS011;53349;53.538;8.584;2023-04-15T02:11:41;9.57;;;4.60;;
66521;SDS011;53349;53.538;8.584;2023-04-15T02:14:08;11.73;;;4.90;;
66521;SDS011;53349;53.538;8.584;2023-04-15T02:16:34;9.48;;;4.65;;
66521;SDS011;53349;53.538;8.584;2023-04-15T02:18:59;10.00;;;4.93;;
66521;SDS011;53349;53.538;8.584;2023-04-15T02:21:25;11.02;;;4.85;;
66521;SDS011;53349;53.538;8.584;2023-04-15T02:23:51;11.85;;;5.40;;
66521;SDS011;53349;53.538;8.584;2023-04-15T02:26:18;11.82;;;5.60;;
66521;SDS011;53349;53.538;8.584;2023-04-15T02:28:45;10.70;;;5.10;;
66521;SDS011;53349;53.538;8.584;2023-04-15T02:31:17;12.70;;;6.03;;
66521;SDS011;53349;53.538;8.584;2023-04-15T02:33:43;11.57;;;6.10;;
66521;SDS011;53349;53.538;8.584;2023-04-15T02:36:11;13.18;;;6.35;;
66521;SDS011;53349;53.538;8.584;2023-04-15T02:38:36;13.20;;;6.27;;
66521;SDS011;53349;53.538;8.584;2023-04-15T02:41:04;14.93;;;6.30;;
66521;SDS011;53349;53.538;8.584;2023-04-15T02:43:29;13.63;;;6.20;;
66521;SDS011;53349;53.538;8.584;2023-04-15T02:45:54;13.87;;;6.43;;
66521;SDS011;53349;53.538;8.584;2023-04-15T02:48:20;13.37;;;6.63;;
66521;SDS011;53349;53.538;8.584;2023-04-15T02:50:46;12.93;;;6.65;;
66521;SDS011;53349;53.538;8.584;2023-04-15T02:53:12;11.23;;;5.83;;
66521;SDS011;53349;53.538;8.584;2023-04-15T02:55:37;13.93;;;6.40;;
66521;SDS011;53349;53.538;8.584;2023-04-15T02:58:03;13.13;;;6.15;;
66521;SDS011;53349;53.538;8.584;2023-04-15T03:00:29;13.27;;;6.00;;
66521;SDS011;53349;53.538;8.584;2023-04-15T03:03:04;13.47;;;6.10;;
66521;SDS011;53349;53.538;8.584;2023-04-15T03:05:30;11.60;;;5.93;;
66521;SDS011;53349;53.538;8.584;2023-04-15T03:07:56;13.05;;;5.78;;
66521;SDS011;53349;53.538;8.584;2023-04-15T03:10:28;13.02;;;6.00;;
66521;SDS011;53349;53.538;8.584;2023-04-15T03:13:19;12.52;;;5.80;;
66521;SDS011;53349;53.538;8.584;2023-04-15T03:15:49;12.00;;;5.65;;
66521;SDS011;53349;53.538;8.584;2023-04-15T03:18:17;12.07;;;6.10;;
66521;SDS011;53349;53.538;8.584;2023-04-15T03:20:49;12.30;;;5.97;;
66521;SDS011;53349;53.538;8.584;2023-04-15T03:23:15;13.63;;;5.93;;
66521;SDS011;53349;53.538;8.584;2023-04-15T03:25:41;13.32;;;5.95;;
66521;SDS011;53349;53.538;8.584;2023-04-15T03:28:08;12.40;;;5.60;;
66521;SDS011;53349;53.538;8.584;2023-04-15T03:30:36;12.70;;;5.70;;
66521;SDS011;53349;53.538;8.584;2023-04-15T03:33:01;13.43;;;5.82;;
66521;SDS011;53349;53.538;8.584;2023-04-15T03:35:29;13.47;;;5.90;;
66521;SDS011;53349;53.538;8.584;2023-04-15T03:38:07;11.18;;;5.55;;
66521;SDS011;53349;53.538;8.584;2023-04-15T03:40:34;11.55;;;5.60;;
66521;SDS011;53349;53.538;8.584;2023-04-15T03:43:02;12.90;;;5.50;;
66521;SDS011;53349;53.538;8.584;2023-04-15T03:45:38;12.95;;;6.00;;
66521;SDS011;53349;53.538;8.584;2023-04-15T03:48:28;11.27;;;5.43;;
66521;SDS011;53349;53.538;8.584;2023-04-15T03:50:55;13.60;;;5.90;;
66521;SDS011;53349;53.538;8.584;2023-04-15T03:53:33;13.07;;;5.72;;
66521;SDS011;53349;53.538;8.584;2023-04-15T03:56:08;13.80;;;5.95;;
66521;SDS011;53349;53.538;8.584;2023-04-15T03:58:34;12.38;;;5.57;;
66521;SDS011;53349;53.538;8.584;2023-04-15T04:01:00;12.63;;;5.60;;
66521;SDS011;53349;53.538;8.584;2023-04-15T04:03:58;12.15;;;6.00;;
66521;SDS011;53349;53.538;8.584;2023-04-15T04:56:19;17.17;;;7.63;;
66521;SDS011;53349;53.538;8.584;2023-04-15T04:58:46;16.45;;;7.32;;
66521;SDS011;53349;53.538;8.584;2023-04-15T05:01:24;17.30;;;7.45;;
66521;SDS011;53349;53.538;8.584;2023-04-15T05:04:39;16.90;;;7.80;;
66521;SDS011;53349;53.538;8.584;2023-04-15T05:07:52;15.48;;;7.18;;
66521;SDS011;53349;53.538;8.584;2023-04-15T05:10:23;15.95;;;7.28;;
66521;SDS011;53349;53.538;8.584;2023-04-15T05:12:56;16.60;;;7.40;;
66521;SDS011;53349;53.538;8.584;2023-04-15T05:15:41;18.23;;;7.75;;
66521;SDS011;53349;53.538;8.584;2023-04-15T05:18:22;18.17;;;7.30;;
66521;SDS011;53349;53.538;8.584;2023-04-15T05:21:00;16.88;;;7.88;;
66521;SDS011;53349;53.538;8.584;2023-04-15T05:23:28;17.92;;;8.05;;
66521;SDS011;53349;53.538;8.584;2023-04-15T05:26:09;18.70;;;7.90;;
66521;SDS011;53349;53.538;8.584;2023-04-15T05:28:56;15.57;;;7.30;;
66521;SDS011;53349;53.538;8.584;2023-04-15T05:31:42;17.00;;;8.17;;
66521;SDS011;53349;53.538;8.584;2023-04-15T05:34:12;16.98;;;7.65;;
66521;SDS011;53349;53.538;8.584;2023-04-15T05:36:41;19.42;;;8.20;;
66521;SDS011;53349;53.538;8.584;2023-04-15T05:39:11;16.02;;;7.40;;
66521;SDS011;53349;53.538;8.584;2023-04-15T05:41:41;18.17;;;7.43;;
66521;SDS011;53349;53.538;8.584;2023-04-15T05:44:10;15.30;;;6.60;;
66521;SDS011;53349;53.538;8.584;2023-04-15T05:46:40;15.20;;;6.68;;
66521;SDS011;53349;53.538;8.584;2023-04-15T05:49:10;16.33;;;6.70;;
66521;SDS011;53349;53.538;8.584;2023-04-15T05:51:37;15.32;;;6.57;;
66521;SDS011;53349;53.538;8.584;2023-04-15T05:54:03;12.97;;;6.20;;
66521;SDS011;53349;53.538;8.584;2023-04-15T05:56:28;14.00;;;6.63;;
66521;SDS011;53349;53.538;8.584;2023-04-15T05:59:03;14.40;;;6.68;;
66521;SDS011;53349;53.538;8.584;2023-04-15T06:01:35;13.75;;;5.95;;
66521;SDS011;53349;53.538;8.584;2023-04-15T06:04:10;16.55;;;7.05;;
66521;SDS011;53349;53.538;8.584;2023-04-15T06:06:41;13.20;;;6.13;;
66521;SDS011;53349;53.538;8.584;2023-04-15T06:09:25;12.30;;;5.57;;
66521;SDS011;53349;53.538;8.584;2023-04-15T06:12:03;11.20;;;5.63;;
66521;SDS011;53349;53.538;8.584;2023-04-15T06:29:10;10.60;;;5.45;;
66521;SDS011;53349;53.538;8.584;2023-04-15T06:32:00;11.05;;;5.32;;
66521;SDS011;53349;53.538;8.584;2023-04-15T06:34:29;11.13;;;5.35;;
66521;SDS011;53349;53.538;8.584;2023-04-15T06:36:54;11.63;;;5.53;;
66521;SDS011;53349;53.538;8.584;2023-04-15T06:39:19;11.73;;;5.27;;
66521;SDS011;53349;53.538;8.584;2023-04-15T06:41:46;9.85;;;5.10;;
66521;SDS011;53349;53.538;8.584;2023-04-15T06:44:11;11.00;;;5.77;;
66521;SDS011;53349;53.538;8.584;2023-04-15T06:46:37;10.90;;;5.13;;
66521;SDS011;53349;53.538;8.584;2023-04-15T06:49:02;10.98;;;5.40;;
66521;SDS011;53349;53.538;8.584;2023-04-15T06:51:27;10.93;;;5.60;;
66521;SDS011;53349;53.538;8.584;2023-04-15T06:53:54;12.38;;;5.82;;
66521;SDS011;53349;53.538;8.584;2023-04-15T06:56:19;12.60;;;5.33;;
66521;SDS011;53349;53.538;8.584;2023-04-15T06:58:45;11.33;;;5.50;;
66521;SDS011;53349;53.538;8.584;2023-04-15T07:01:33;10.02;;;4.93;;
66521;SDS011;53349;53.538;8.584;2023-04-15T07:04:04;11.43;;;4.63;;
66521;SDS011;53349;53.538;8.584;2023-04-15T07:06:32;8.88;;;4.25;;
66521;SDS011;53349;53.538;8.584;2023-04-15T07:40:03;8.18;;;3.60;;
66521;SDS011;53349;53.538;8.584;2023-04-15T07:42:28;8.23;;;3.28;;
66521;SDS011;53349;53.538;8.584;2023-04-15T07:44:54;9.20;;;3.50;;
66521;SDS011;53349;53.538;8.584;2023-04-15T07:47:19;8.60;;;3.63;;
66521;SDS011;53349;53.538;8.584;2023-04-15T07:49:44;8.67;;;3.20;;
66521;SDS011;53349;53.538;8.584;2023-04-15T07:52:11;7.22;;;3.55;;
66521;SDS011;53349;53.538;8.584;2023-04-15T07:54:36;7.50;;;3.23;;
66521;SDS011;53349;53.538;8.584;2023-04-15T07:57:02;9.73;;;4.05;;
66521;SDS011;53349;53.538;8.584;2023-04-15T07:59:28;7.40;;;3.83;;
66521;SDS011;53349;53.538;8.584;2023-04-15T08:01:53;8.50;;;4.28;;
66521;SDS011;53349;53.538;8.584;2023-04-15T08:04:20;9.13;;;4.40;;
66521;SDS011;53349;53.538;8.584;2023-04-15T08:06:45;9.27;;;4.30;;
66521;SDS011;53349;53.538;8.584;2023-04-15T08:09:11;9.17;;;4.10;;
66521;SDS011;53349;53.538;8.584;2023-04-15T08:11:39;9.20;;;3.97;;
66521;SDS011;53349;53.538;8.584;2023-04-15T08:14:04;9.43;;;3.93;;
66521;SDS011;53349;53.538;8.584;2023-04-15T08:16:30;10.13;;;4.18;;
66521;SDS011;53349;53.538;8.584;2023-04-15T08:18:56;8.30;;;3.83;;
66521;SDS011;53349;53.538;8.584;2023-04-15T08:21:21;9.57;;;3.97;;
66521;SDS011;53349;53.538;8.584;2023-04-15T08:23:48;11.23;;;4.27;;
66521;SDS011;53349;53.538;8.584;2023-04-15T08:26:15;8.48;;;3.88;;
66521;SDS011;53349;53.538;8.584;2023-04-15T08:28:41;9.68;;;3.90;;
66521;SDS011;53349;53.538;8.584;2023-04-15T08:31:07;7.68;;;3.80;;
66521;SDS011;53349;53.538;8.584;2023-04-15T08:33:32;8.27;;;3.90;;
66521;SDS011;53349;53.538;8.584;2023-04-15T08:36:00;6.80;;;3.60;;
66521;SDS011;53349;53.538;8.584;2023-04-15T08:38:26;7.23;;;3.30;;
66521;SDS011;53349;53.538;8.584;2023-04-15T08:40:51;7.40;;;3.40;;
66521;SDS011;53349;53.538;8.584;2023-04-15T08:43:20;7.53;;;3.58;;
66521;SDS011;53349;53.538;8.584;2023-04-15T08:45:49;6.70;;;3.20;;
66521;SDS011;53349;53.538;8.584;2023-04-15T08:48:16;8.27;;;2.97;;
66521;SDS011;53349;53.538;8.584;2023-04-15T08:50:43;6.75;;;3.13;;
66521;SDS011;53349;53.538;8.584;2023-04-15T08:53:10;6.10;;;2.80;;
66521;SDS011;53349;53.538;8.584;2023-04-15T08:55:35;7.53;;;2.80;;
66521;SDS011;53349;53.538;8.584;2023-04-15T08:58:06;6.90;;;3.28;;
66521;SDS011;53349;53.538;8.584;2023-04-15T09:00:32;5.90;;;3.03;;
66521;SDS011;53349;53.538;8.584;2023-04-15T09:02:58;7.50;;;3.00;;
66521;SDS011;53349;53.538;8.584;2023-04-15T09:05:24;5.63;;;2.75;;
66521;SDS011;53349;53.538;8.584;2023-04-15T09:07:53;6.40;;;2.78;;
66521;SDS011;53349;53.538;8.584;2023-04-15T09:10:19;5.35;;;2.40;;
66521;SDS011;53349;53.538;8.584;2023-04-15T09:12:45;7.20;;;2.80;;
66521;SDS011;53349;53.538;8.584;2023-04-15T09:15:11;6.30;;;2.80;;
66521;SDS011;53349;53.538;8.584;2023-04-15T09:17:38;6.27;;;2.70;;
66521;SDS011;53349;53.538;8.584;2023-04-15T09:20:10;6.43;;;2.95;;
66521;SDS011;53349;53.538;8.584;2023-04-15T09:22:36;6.22;;;2.70;;
66521;SDS011;53349;53.538;8.584;2023-04-15T09:25:25;5.85;;;2.70;;
66521;SDS011;53349;53.538;8.584;2023-04-15T09:27:52;5.88;;;2.90;;
66521;SDS011;53349;53.538;8.584;2023-04-15T09:30:19;6.47;;;2.75;;
66521;SDS011;53349;53.538;8.584;2023-04-15T09:33:03;6.60;;;3.17;;
66521;SDS011;53349;53.538;8.584;2023-04-15T09:35:29;6.50;;;3.28;;
66521;SDS011;53349;53.538;8.584;2023-04-15T09:38:01;7.43;;;3.20;;
66521;SDS011;53349;53.538;8.584;2023-04-15T09:43:02;7.50;;;3.30;;
66521;SDS011;53349;53.538;8.584;2023-04-15T09:45:28;7.72;;;3.80;;
66521;SDS011;53349;53.538;8.584;2023-04-15T09:47:58;6.70;;;3.60;;
66521;SDS011;53349;53.538;8.584;2023-04-15T09:50:26;8.30;;;3.90;;
66521;SDS011;53349;53.538;8.584;2023-04-15T09:52:53;8.55;;;3.53;;
66521;SDS011;53349;53.538;8.584;2023-04-15T09:55:22;8.97;;;3.93;;
66521;SDS011;53349;53.538;8.584;2023-04-15T09:57:50;8.50;;;4.20;;
66521;SDS011;53349;53.538;8.584;2023-04-15T10:00:15;10.30;;;4.50;;
66521;SDS011;53349;53.538;8.584;2023-04-15T10:02:41;8.10;;;3.97;;
66521;SDS011;53349;53.538;8.584;2023-04-15T10:05:14;9.20;;;4.63;;
66521;SDS011;53349;53.538;8.584;2023-04-15T10:07:39;8.25;;;4.05;;
66521;SDS011;53349;53.538;8.584;2023-04-15T10:10:06;9.87;;;4.27;;
66521;SDS011;53349;53.538;8.584;2023-04-15T10:12:36;8.90;;;4.85;;
66521;SDS011;53349;53.538;8.584;2023-04-15T10:15:05;10.60;;;4.82;;
66521;SDS011;53349;53.538;8.584;2023-04-15T10:17:32;9.13;;;4.60;;
66521;SDS011;53349;53.538;8.584;2023-04-15T11:41:47;21.07;;;8.43;;
66521;SDS011;53349;53.538;8.584;2023-04-15T11:44:18;24.95;;;9.07;;
66521;SDS011;53349;53.538;8.584;2023-04-15T11:46:43;26.63;;;10.18;;
66521;SDS011;53349;53.538;8.584;2023-04-15T11:49:08;28.57;;;11.13;;
66521;SDS011;53349;53.538;8.584;2023-04-15T11:51:34;33.92;;;12.00;;
66521;SDS011;53349;53.538;8.584;2023-04-15T11:53:59;29.33;;;11.80;;
66521;SDS011;53349;53.538;8.584;2023-04-15T11:56:25;33.77;;;14.00;;
66521;SDS011;53349;53.538;8.584;2023-04-15T11:58:51;44.72;;;15.02;;
66521;SDS011;53349;53.538;8.584;2023-04-15T12:10:30;40.75;;;17.08;;
66521;SDS011;53349;53.538;8.584;2023-04-15T12:16:18;45.80;;;17.48;;
66521;SDS011;53349;53.538;8.584;2023-04-15T12:21:47;43.42;;;17.42;;
66521;SDS011;53349;53.538;8.584;2023-04-15T12:24:13;46.15;;;18.55;;
66521;SDS011;53349;53.538;8.584;2023-04-15T12:26:43;41.65;;;18.02;;
66521;SDS011;53349;53.538;8.584;2023-04-15T12:29:10;43.38;;;18.52;;
66521;SDS011;53349;53.538;8.584;2023-04-15T12:31:51;43.97;;;19.27;;
66521;SDS011;53349;53.538;8.584;2023-04-15T12:34:29;45.55;;;18.50;;
66521;SDS011;53349;53.538;8.584;2023-04-15T12:36:57;45.35;;;18.83;;
66521;SDS011;53349;53.538;8.584;2023-04-15T12:39:27;46.70;;;20.00;;
66521;SDS011;53349;53.538;8.584;2023-04-15T12:41:55;49.35;;;20.25;;
66521;SDS011;53349;53.538;8.584;2023-04-15T12:44:23;46.97;;;20.03;;
66521;SDS011;53349;53.538;8.584;2023-04-15T12:46:49;47.40;;;20.25;;
66521;SDS011;53349;53.538;8.584;2023-04-15T12:49:15;43.50;;;20.25;;
66521;SDS011;53349;53.538;8.584;2023-04-15T12:51:41;45.55;;;19.80;;
66521;SDS011;53349;53.538;8.584;2023-04-15T12:54:08;46.88;;;20.40;;
66521;SDS011;53349;53.538;8.584;2023-04-15T12:56:37;45.30;;;20.42;;
66521;SDS011;53349;53.538;8.584;2023-04-15T12:59:03;48.30;;;21.20;;
66521;SDS011;53349;53.538;8.584;2023-04-15T13:01:28;46.80;;;21.10;;
66521;SDS011;53349;53.538;8.584;2023-04-15T13:03:55;44.97;;;20.80;;
66521;SDS011;53349;53.538;8.584;2023-04-15T13:06:21;43.75;;;20.98;;
66521;SDS011;53349;53.538;8.584;2023-04-15T13:08:49;42.45;;;20.55;;
66521;SDS011;53349;53.538;8.584;2023-04-15T13:11:16;41.90;;;20.33;;
66521;SDS011;53349;53.538;8.584;2023-04-15T13:13:42;43.88;;;21.20;;
66521;SDS011;53349;53.538;8.584;2023-04-15T13:16:09;45.15;;;20.45;;
66521;SDS011;53349;53.538;8.584;2023-04-15T13:18:35;42.40;;;21.10;;
66521;SDS011;53349;53.538;8.584;2023-04-15T13:21:00;44.20;;;21.17;;
66521;SDS011;53349;53.538;8.584;2023-04-15T13:23:26;44.40;;;20.67;;
66521;SDS011;53349;53.538;8.584;2023-04-15T13:25:52;42.85;;;21.00;;
66521;SDS011;53349;53.538;8.584;2023-04-15T13:28:17;41.97;;;20.90;;
66521;SDS011;53349;53.538;8.584;2023-04-15T13:30:43;43.53;;;21.52;;
66521;SDS011;53349;53.538;8.584;2023-04-15T13:33:08;41.17;;;18.92;;
66521;SDS011;53349;53.538;8.584;2023-04-15T13:35:35;39.72;;;18.25;;
66521;SDS011;53349;53.538;8.584;2023-04-15T13:38:01;42.00;;;18.90;;
66521;SDS011;53349;53.538;8.584;2023-04-15T13:40:26;39.60;;;19.03;;
66521;SDS011;53349;53.538;8.584;2023-04-15T13:42:52;39.95;;;18.75;;
66521;SDS011;53349;53.538;8.584;2023-04-15T13:45:19;37.77;;;19.10;;
66521;SDS011;53349;53.538;8.584;2023-04-15T13:47:45;41.08;;;18.77;;
66521;SDS011;53349;53.538;8.584;2023-04-15T13:50:11;33.20;;;17.63;;
66521;SDS011;53349;53.538;8.584;2023-04-15T13:52:38;32.30;;;17.08;;
66521;SDS011;53349;53.538;8.584;2023-04-15T13:55:04;30.65;;;16.98;;
66521;SDS011;53349;53.538;8.584;2023-04-15T13:57:30;31.23;;;17.15;;
66521;SDS011;53349;53.538;8.584;2023-04-15T13:59:56;31.23;;;16.83;;
66521;SDS011;53349;53.538;8.584;2023-04-15T14:02:22;34.40;;;16.53;;
66521;SDS011;53349;53.538;8.584;2023-04-15T14:04:48;28.67;;;15.40;;
66521;SDS011;53349;53.538;8.584;2023-04-15T14:07:13;30.13;;;16.37;;
66521;SDS011;53349;53.538;8.584;2023-04-15T14:09:39;30.67;;;16.67;;
66521;SDS011;53349;53.538;8.584;2023-04-15T14:12:04;26.93;;;15.03;;
66521;SDS011;53349;53.538;8.584;2023-04-15T14:14:30;27.50;;;15.82;;
66521;SDS011;53349;53.538;8.584;2023-04-15T14:16:57;26.17;;;15.57;;
66521;SDS011;53349;53.538;8.584;2023-04-15T14:19:22;26.70;;;15.48;;
66521;SDS011;53349;53.538;8.584;2023-04-15T14:21:48;26.77;;;14.77;;
66521;SDS011;53349;53.538;8.584;2023-04-15T14:24:13;27.03;;;15.23;;
66521;SDS011;53349;53.538;8.584;2023-04-15T14:26:41;26.55;;;15.40;;
66521;SDS011;53349;53.538;8.584;2023-04-15T14:29:08;27.77;;;15.57;;
66521;SDS011;53349;53.538;8.584;2023-04-15T14:31:36;26.10;;;14.77;;
66521;SDS011;53349;53.538;8.584;2023-04-15T14:34:04;24.10;;;13.80;;
66521;SDS011;53349;53.538;8.584;2023-04-15T14:36:30;21.63;;;13.17;;
66521;SDS011;53349;53.538;8.584;2023-04-15T14:38:56;19.67;;;12.32;;
66521;SDS011;53349;53.538;8.584;2023-04-15T14:41:21;19.70;;;12.57;;
66521;SDS011;53349;53.538;8.584;2023-04-15T14:43:47;19.13;;;12.17;;
66521;SDS011;53349;53.538;8.584;2023-04-15T14:46:14;22.23;;;12.73;;
66521;SDS011;53349;53.538;8.584;2023-04-15T14:48:39;21.23;;;12.90;;
66521;SDS011;53349;53.538;8.584;2023-04-15T14:51:05;22.57;;;12.10;;
66521;SDS011;53349;53.538;8.584;2023-04-15T14:53:30;19.17;;;12.05;;
66521;SDS011;53349;53.538;8.584;2023-04-15T14:55:56;20.27;;;11.33;;
66521;SDS011;53349;53.538;8.584;2023-04-15T14:58:21;19.97;;;11.07;;
66521;SDS011;53349;53.538;8.584;2023-04-15T15:00:48;19.17;;;11.82;;
66521;SDS011;53349;53.538;8.584;2023-04-15T15:03:14;19.30;;;11.90;;
66521;SDS011;53349;53.538;8.584;2023-04-15T15:05:40;20.48;;;11.68;;
66521;SDS011;53349;53.538;8.584;2023-04-15T15:08:07;20.30;;;11.90;;
66521;SDS011;53349;53.538;8.584;2023-04-15T15:10:33;20.90;;;12.20;;
66521;SDS011;53349;53.538;8.584;2023-04-15T15:12:58;19.77;;;11.80;;
66521;SDS011;53349;53.538;8.584;2023-04-15T15:15:25;19.67;;;12.27;;
66521;SDS011;53349;53.538;8.584;2023-04-15T15:17:54;20.77;;;12.00;;
66521;SDS011;53349;53.538;8.584;2023-04-15T15:20:19;20.50;;;12.00;;
66521;SDS011;53349;53.538;8.584;2023-04-15T15:22:46;20.02;;;12.55;;
66521;SDS011;53349;53.538;8.584;2023-04-15T15:25:12;22.08;;;12.82;;
66521;SDS011;53349;53.538;8.584;2023-04-15T15:27:40;19.15;;;11.80;;
66521;SDS011;53349;53.538;8.584;2023-04-15T15:30:07;19.88;;;12.00;;
66521;SDS011;53349;53.538;8.584;2023-04-15T15:32:35;19.45;;;12.10;;
66521;SDS011;53349;53.538;8.584;2023-04-15T15:35:03;19.25;;;12.15;;
66521;SDS011;53349;53.538;8.584;2023-04-15T15:37:29;18.50;;;11.20;;
66521;SDS011;53349;53.538;8.584;2023-04-15T15:40:00;18.85;;;10.68;;
66521;SDS011;53349;53.538;8.584;2023-04-15T15:42:35;16.52;;;10.45;;
66521;SDS011;53349;53.538;8.584;2023-04-15T15:45:01;16.70;;;10.03;;
66521;SDS011;53349;53.538;8.584;2023-04-15T15:47:27;17.52;;;10.27;;
66521;SDS011;53349;53.538;8.584;2023-04-15T15:49:56;16.80;;;10.25;;
66521;SDS011;53349;53.538;8.584;2023-04-15T15:52:22;17.90;;;10.73;;
66521;SDS011;53349;53.538;8.584;2023-04-15T15:54:48;18.02;;;10.73;;
66521;SDS011;53349;53.538;8.584;2023-04-15T15:57:13;17.90;;;10.70;;
66521;SDS011;53349;53.538;8.584;2023-04-15T15:59:38;17.57;;;10.67;;
66521;SDS011;53349;53.538;8.584;2023-04-15T16:02:04;18.13;;;11.40;;
66521;SDS011;53349;53.538;8.584;2023-04-15T16:04:29;18.50;;;10.53;;
66521;SDS011;53349;53.538;8.584;2023-04-15T16:06:55;20.42;;;10.43;;
66521;SDS011;53349;53.538;8.584;2023-04-15T16:09:20;16.77;;;9.80;;
66521;SDS011;53349;53.538;8.584;2023-04-15T16:11:50;19.75;;;10.82;;
66521;SDS011;53349;53.538;8.584;2023-04-15T16:14:15;18.02;;;10.30;;
66521;SDS011;53349;53.538;8.584;2023-04-15T16:16:40;18.23;;;10.73;;
66521;SDS011;53349;53.538;8.584;2023-04-15T16:19:06;18.47;;;11.00;;
66521;SDS011;53349;53.538;8.584;2023-04-15T16:21:31;17.80;;;10.37;;
66521;SDS011;53349;53.538;8.584;2023-04-15T16:23:58;18.27;;;11.70;;
66521;SDS011;53349;53.538;8.584;2023-04-15T16:26:23;17.93;;;10.83;;
66521;SDS011;53349;53.538;8.584;2023-04-15T16:28:49;17.92;;;10.70;;
66521;SDS011;53349;53.538;8.584;2023-04-15T16:31:14;19.92;;;11.13;;
66521;SDS011;53349;53.538;8.584;2023-04-15T16:33:40;17.70;;;10.57;;
66521;SDS011;53349;53.538;8.584;2023-04-15T16:36:06;16.57;;;10.63;;
66521;SDS011;53349;53.538;8.584;2023-04-15T16:38:32;18.85;;;11.18;;
66521;SDS011;53349;53.538;8.584;2023-04-15T16:40:59;16.67;;;10.20;;
66521;SDS011;53349;53.538;8.584;2023-04-15T16:43:25;19.75;;;11.57;;
66521;SDS011;53349;53.538;8.584;2023-04-15T16:45:51;18.58;;;11.02;;
66521;SDS011;53349;53.538;8.584;2023-04-15T16:48:17;18.30;;;10.75;;
66521;SDS011;53349;53.538;8.584;2023-04-15T16:50:43;18.83;;;10.88;;
66521;SDS011;53349;53.538;8.584;2023-04-15T16:53:13;15.93;;;9.57;;
66521;SDS011;53349;53.538;8.584;2023-04-15T16:55:39;17.10;;;10.27;;
66521;SDS011;53349;53.538;8.584;2023-04-15T16:58:04;18.40;;;10.07;;
66521;SDS011;53349;53.538;8.584;2023-04-15T17:00:30;16.92;;;10.10;;
66521;SDS011;53349;53.538;8.584;2023-04-15T17:02:56;16.97;;;9.93;;
66521;SDS011;53349;53.538;8.584;2023-04-15T17:05:22;17.13;;;10.05;;
66521;SDS011;53349;53.538;8.584;2023-04-15T17:07:47;14.87;;;9.47;;
66521;SDS011;53349;53.538;8.584;2023-04-15T17:10:12;17.50;;;10.13;;
66521;SDS011;53349;53.538;8.584;2023-04-15T17:12:38;16.10;;;9.87;;
66521;SDS011;53349;53.538;8.584;2023-04-15T17:15:04;19.10;;;10.60;;
66521;SDS011;53349;53.538;8.584;2023-04-15T17:17:33;15.57;;;9.98;;
66521;SDS011;53349;53.538;8.584;2023-04-15T17:20:00;16.20;;;10.25;;
66521;SDS011;53349;53.538;8.584;2023-04-15T17:22:26;18.02;;;10.63;;
66521;SDS011;53349;53.538;8.584;2023-04-15T17:24:51;15.43;;;9.57;;
66521;SDS011;53349;53.538;8.584;2023-04-15T17:27:16;15.82;;;9.40;;
66521;SDS011;53349;53.538;8.584;2023-04-15T17:29:44;16.70;;;9.75;;
66521;SDS011;53349;53.538;8.584;2023-04-15T17:32:09;18.17;;;10.13;;
66521;SDS011;53349;53.538;8.584;2023-04-15T17:34:35;18.58;;;10.10;;
66521;SDS011;53349;53.538;8.584;2023-04-15T17:37:01;15.53;;;9.63;;
66521;SDS011;53349;53.538;8.584;2023-04-15T17:39:27;16.58;;;10.52;;
66521;SDS011;53349;53.538;8.584;2023-04-15T17:41:55;17.70;;;10.07;;
66521;SDS011;53349;53.538;8.584;2023-04-15T17:44:22;20.13;;;10.13;;
66521;SDS011;53349;53.538;8.584;2023-04-15T17:46:47;19.25;;;10.68;;
66521;SDS011;53349;53.538;8.584;2023-04-15T17:49:13;17.23;;;10.63;;
66521;SDS011;53349;53.538;8.584;2023-04-15T17:51:38;18.77;;;10.47;;
66521;SDS011;53349;53.538;8.584;2023-04-15T17:54:06;17.70;;;10.77;;
66521;SDS011;53349;53.538;8.584;2023-04-15T17:56:32;17.27;;;10.90;;
66521;SDS011;53349;53.538;8.584;2023-04-15T17:58:58;17.33;;;10.82;;
66521;SDS011;53349;53.538;8.584;2023-04-15T18:01:23;20.10;;;11.30;;
66521;SDS011;53349;53.538;8.584;2023-04-15T18:03:51;18.13;;;10.17;;